Springville, Pennsylvania
Current Conditions -  °F | °C
As of 6:54 AM on Sunday 21 Dec 2014 (Local Time) from KAVP Reporting Station
Overcast Overcast  
Wind Chill: 29°   Ceiling: 2100
Heat Index: 29°   Visibility: 10mi
Dew Point: 20°   Wind: 3mph
Humidity: 69%   Direction: 350°N
Pressure: 30.26"   Gusts: NA
Location:  41.7°N, 75.92°W
Report Text: KAVP 211154Z AUTO 35003KT 10SM OVC021 M02/M07 A3026 RMK AO2 SLP257 T10171067 11011 21017 52005
Loading
Personal Weather Stations






























Interactive Weather Map New forecast layout! Learn more

10-Day Weather Forecast

Advertisements
Track Severe Weather on mobile